Sea Hope — YJUA2 — position and weather

sailwx.info

Track history (hours):
 
Tides and Currents Weather Stations Pressure Air Temp Water Temp Dewpoint Dewpoint Depression Visibility Wind Speed Wind Dir Waves Ship Positions

Sea Hope

Last reported at 2017-Nov-29 15:32 UTC. Time now 2017-Dec-12 02:48 UTC.
Position N 48°59' W 126°27'.
Warning: this ship's position is 12 days out of date.

Length 181 m; draft 10.4 m.

Type: Cargo ship. MMSI: 577297000.

Date/timePositionNaut miles runAvg speedWind from/ knotsBaromVisibWave heightAir tempDewpointWater temp
2017-Nov-29 15:32N 48°59' W 126°27'1 8.0
2017-Nov-29 15:27N 48°59' W 126°26'10 7.5
2017-Nov-29 14:10N 48°55' W 126°13'1 7.4
2017-Nov-29 14:00N 48°55' W 126°11'4 7.5
2017-Nov-29 13:30N 48°53' W 126°06'3 7.2
2017-Nov-29 13:01N 48°52' W 126°01'4 7.5
2017-Nov-29 12:30N 48°51' W 125°55'4 7.3
2017-Nov-29 12:01N 48°49' W 125°50'4 7.1
2017-Nov-29 11:31N 48°48' W 125°45'3 7.0
2017-Nov-29 11:01N 48°46' W 125°40'4 7.2
2017-Nov-29 10:31N 48°45' W 125°35'4 7.4
2017-Nov-29 10:01N 48°43' W 125°30'4 7.6
2017-Nov-29 09:31N 48°42' W 125°25'4 7.3
2017-Nov-29 09:01N 48°41' W 125°20'4 8.0
2017-Nov-29 08:31N 48°39' W 125°14'4 7.8
2017-Nov-29 08:00N 48°37' W 125°09'4 7.7
2017-Nov-29 07:30N 48°36' W 125°03'4 7.1
2017-Nov-29 07:00N 48°35' W 124°58'3 6.6
2017-Nov-29 06:30N 48°34' W 124°54'3 6.7
2017-Nov-29 06:00N 48°32' W 124°49'3 6.1
2017-Nov-29 05:30N 48°31' W 124°45'3 5.7
2017-Nov-29 05:00N 48°30' W 124°41'3 5.7
2017-Nov-29 04:31N 48°29' W 124°37'3 6.7
2017-Nov-29 04:00N 48°27' W 124°32'4 7.7
2017-Nov-29 03:30N 48°26' W 124°27'4 9.0
2017-Nov-29 03:01N 48°24' W 124°21'5 9.8
2017-Nov-29 02:30N 48°22' W 124°14'510.7
2017-Nov-29 02:00N 48°20' W 124°06'510.9
2017-Nov-29 01:31N 48°18' W 123°59'510.9
2017-Nov-29 01:00N 48°17' W 123°51'611.1
2017-Nov-29 00:30N 48°16' W 123°43'612.8
2017-Nov-29 00:01N 48°15' W 123°33'611.5
2017-Nov-28 23:31N 48°19' W 123°27'4 7.9
2017-Nov-28 23:01N 48°23' W 123°24'510.5
2017-Nov-28 22:30N 48°23' W 123°16'612.2
2017-Nov-28 22:00N 48°29' W 123°13'613.0
2017-Nov-28 21:30N 48°36' W 123°14'612.4
2017-Nov-28 21:00N 48°42' W 123°15'612.0
2017-Nov-28 20:29N 48°45' W 123°07'611.4
2017-Nov-28 20:00N 48°48' W 123°01'713.1
2017-Nov-28 19:30N 48°53' W 123°07'612.9
2017-Nov-28 19:00N 48°58' W 123°15'712.5
2017-Nov-28 18:28N 49°02' W 123°22'511.2
2017-Nov-28 18:00N 49°08' W 123°23'611.9
2017-Nov-28 17:30N 49°13' W 123°21'611.3
2017-Nov-28 17:00N 49°18' W 123°17'611.2
2017-Nov-28 16:30N 49°19' W 123°08'3 5.6
2017-Nov-28 16:00N 49°17' W 123°05'0 0.1
2017-Nov-28 14:58N 49°17' W 123°05'0 0.0
2017-Nov-28 14:25N 49°17' W 123°05'0 0.0
2017-Nov-28 13:58N 49°17' W 123°05'0 0.0
2017-Nov-28 13:28N 49°17' W 123°05'0 0.0
2017-Nov-28 12:58N 49°17' W 123°05'0 0.0
2017-Nov-28 12:28N 49°17' W 123°05'0 0.0
2017-Nov-28 11:58N 49°17' W 123°05'0 0.0
2017-Nov-28 11:28N 49°17' W 123°05'0 0.0
2017-Nov-28 10:58N 49°17' W 123°05'0 0.0
2017-Nov-28 10:28N 49°17' W 123°05'0 0.0
2017-Nov-28 09:58N 49°17' W 123°05'0 0.0
2017-Nov-28 09:28N 49°17' W 123°05'0 0.0
2017-Nov-28 08:58N 49°17' W 123°05'0 0.0
2017-Nov-28 08:28N 49°17' W 123°05'0 0.1
2017-Nov-28 07:58N 49°17' W 123°05'0 0.1
2017-Nov-28 07:28N 49°17' W 123°05'0 0.0
2017-Nov-28 06:58N 49°17' W 123°05'0 0.0
2017-Nov-28 06:28N 49°17' W 123°05'0 0.0
2017-Nov-28 05:58N 49°17' W 123°05'0 0.0
2017-Nov-28 05:28N 49°17' W 123°05'0 0.0
2017-Nov-28 04:28N 49°17' W 123°05'0 0.0
2017-Nov-28 03:58N 49°17' W 123°05'0 0.0
2017-Nov-28 03:28N 49°17' W 123°05'0 0.0
2017-Nov-28 02:58N 49°17' W 123°05'0 0.0
2017-Nov-28 02:28N 49°17' W 123°05'0 0.0
2017-Nov-28 01:58N 49°17' W 123°05'0 0.0
2017-Nov-28 01:28N 49°17' W 123°05'0 0.0
2017-Nov-28 00:58N 49°17' W 123°05'0 0.0
2017-Nov-28 00:28N 49°17' W 123°05'0 0.0
2017-Nov-27 23:58N 49°17' W 123°05'0 0.0
2017-Nov-27 23:28N 49°17' W 123°05'0 0.0
2017-Nov-27 22:58N 49°17' W 123°05'0 0.0
2017-Nov-27 22:28N 49°17' W 123°05'0 0.0
2017-Nov-27 21:58N 49°17' W 123°05'0 0.0
2017-Nov-27 21:28N 49°17' W 123°05'0 0.0
2017-Nov-27 20:58N 49°17' W 123°05'0 0.0
2017-Nov-27 20:28N 49°17' W 123°05'0 0.0
2017-Nov-27 19:58N 49°17' W 123°05'0 0.0
2017-Nov-27 19:28N 49°17' W 123°05'0 0.0
2017-Nov-27 18:58N 49°17' W 123°05'0 0.0
2017-Nov-27 18:28N 49°17' W 123°05'0 0.0
2017-Nov-27 17:58N 49°17' W 123°05'0 0.0
2017-Nov-27 17:28N 49°17' W 123°05'0 0.0
2017-Nov-27 16:58N 49°17' W 123°05'0 0.0
2017-Nov-27 16:28N 49°17' W 123°05'0 0.0
2017-Nov-27 15:58N 49°17' W 123°05'0 0.0
2017-Nov-27 15:28N 49°17' W 123°05'0 0.0
2017-Nov-27 14:58N 49°17' W 123°05'0 0.0
2017-Nov-27 14:28N 49°17' W 123°05'0 0.0
2017-Nov-27 13:58N 49°17' W 123°05'0 0.0
2017-Nov-27 13:28N 49°17' W 123°05'0 0.0
2017-Nov-27 12:58N 49°17' W 123°05'0 0.0
2017-Nov-27 12:28N 49°17' W 123°05'0 0.0
2017-Nov-27 11:58N 49°17' W 123°05'0 0.0
2017-Nov-27 11:28N 49°17' W 123°05'0 0.0
2017-Nov-27 10:58N 49°17' W 123°05'0 0.0
2017-Nov-27 10:28N 49°17' W 123°05'0 0.0
2017-Nov-27 09:58N 49°17' W 123°05'0 0.0
2017-Nov-27 09:28N 49°17' W 123°05'0 0.0
2017-Nov-27 08:58N 49°17' W 123°05'0 0.0
2017-Nov-27 08:28N 49°17' W 123°05'0 0.0
2017-Nov-27 07:58N 49°17' W 123°05'0 0.0
2017-Nov-27 07:28N 49°17' W 123°05'0 0.0
2017-Nov-27 06:58N 49°17' W 123°05'0 0.0
2017-Nov-27 06:28N 49°17' W 123°05'0 0.0
2017-Nov-27 05:58N 49°17' W 123°05'0 0.0
2017-Nov-27 05:28N 49°17' W 123°05'0 0.0
2017-Nov-27 04:58N 49°17' W 123°05'0 0.0
2017-Nov-27 04:28N 49°17' W 123°05'0 0.0
2017-Nov-27 03:58N 49°17' W 123°05'0 0.0
2017-Nov-27 03:28N 49°17' W 123°05'0 0.0
2017-Nov-27 02:58N 49°17' W 123°05'0 0.0
2017-Nov-27 02:28N 49°17' W 123°05'0 0.0
2017-Nov-27 01:58N 49°17' W 123°05'0 0.0
2017-Nov-27 01:28N 49°17' W 123°05'0 0.0
2017-Nov-27 00:58N 49°17' W 123°05'0 0.0
2017-Nov-27 00:28N 49°17' W 123°05'0 0.0
2017-Nov-26 23:58N 49°17' W 123°05'0 0.0
2017-Nov-26 23:28N 49°17' W 123°05'0 0.0
2017-Nov-26 22:58N 49°17' W 123°05'0 0.0
2017-Nov-26 22:28N 49°17' W 123°05'0 0.0
2017-Nov-26 21:58N 49°17' W 123°05'0 0.0
2017-Nov-26 21:28N 49°17' W 123°05'0 0.0
2017-Nov-26 20:58N 49°17' W 123°05'0 0.0
2017-Nov-26 20:28N 49°17' W 123°05'0 0.0
2017-Nov-26 19:58N 49°17' W 123°05'0 0.0
2017-Nov-26 19:28N 49°17' W 123°05'0 0.0
2017-Nov-26 18:58N 49°17' W 123°05'0 0.0
2017-Nov-26 18:28N 49°17' W 123°05'0 0.0
2017-Nov-26 17:58N 49°17' W 123°05'0 0.0
2017-Nov-26 17:28N 49°17' W 123°05'0 0.0
2017-Nov-26 16:58N 49°17' W 123°05'0 0.0
2017-Nov-26 16:28N 49°17' W 123°05'0 0.0
2017-Nov-26 15:58N 49°17' W 123°05'0 0.0
2017-Nov-26 15:28N 49°17' W 123°05'0 0.0
2017-Nov-26 14:58N 49°17' W 123°05'0 0.0
2017-Nov-26 14:28N 49°17' W 123°05'0 0.0
2017-Nov-26 13:58N 49°17' W 123°05'0 0.0
2017-Nov-26 13:28N 49°17' W 123°05'0 0.0
2017-Nov-26 12:58N 49°17' W 123°05'0 0.0
2017-Nov-26 12:28N 49°17' W 123°05'0 0.0
2017-Nov-26 11:58N 49°17' W 123°05'0 0.0
2017-Nov-26 11:28N 49°17' W 123°05'0 0.0
2017-Nov-26 10:58N 49°17' W 123°05'0 0.0
2017-Nov-26 10:28N 49°17' W 123°05'0 0.0
2017-Nov-26 09:58N 49°17' W 123°05'0 0.0
2017-Nov-26 09:28N 49°17' W 123°05'0 0.0
2017-Nov-26 08:58N 49°17' W 123°05'0 0.1
2017-Nov-26 08:28N 49°17' W 123°05'0 0.1
2017-Nov-26 07:58N 49°17' W 123°05'0 0.0
2017-Nov-26 07:28N 49°17' W 123°05'0 0.0
2017-Nov-26 06:58N 49°17' W 123°05'0 0.0
2017-Nov-26 06:28N 49°17' W 123°05'0 0.0
2017-Nov-26 05:58N 49°17' W 123°05'0 0.0
2017-Nov-26 05:28N 49°17' W 123°05'0 0.0
2017-Nov-26 04:58N 49°17' W 123°05'0 0.0
2017-Nov-26 04:28N 49°17' W 123°05'0 0.0
2017-Nov-26 03:58N 49°17' W 123°05'0 0.0
2017-Nov-26 03:28N 49°17' W 123°05'0 0.0
2017-Nov-26 02:58N 49°17' W 123°05'0 0.0
2017-Nov-26 02:28N 49°17' W 123°05'0 0.0
2017-Nov-26 01:58N 49°17' W 123°05'0 0.0
2017-Nov-26 01:28N 49°17' W 123°05'0 0.0
2017-Nov-26 00:58N 49°17' W 123°05'0 0.0
2017-Nov-26 00:28N 49°17' W 123°05'0 0.0
2017-Nov-25 23:58N 49°17' W 123°05'0 0.0
2017-Nov-25 23:28N 49°17' W 123°05'0 0.0
2017-Nov-25 22:58N 49°17' W 123°05'0 0.0
2017-Nov-25 22:28N 49°17' W 123°05'0 0.0
2017-Nov-25 21:58N 49°17' W 123°05'0 0.0
2017-Nov-25 21:28N 49°17' W 123°05'0 0.0
2017-Nov-25 20:58N 49°17' W 123°05'0 0.0
2017-Nov-25 20:28N 49°17' W 123°05'0 0.0
2017-Nov-25 19:58N 49°17' W 123°05'0 0.0
2017-Nov-25 19:28N 49°17' W 123°05'0 0.0
2017-Nov-25 18:58N 49°17' W 123°05'0 0.0
2017-Nov-25 18:28N 49°17' W 123°05'0 0.0
2017-Nov-25 17:58N 49°17' W 123°05'0 0.0
2017-Nov-25 17:28N 49°17' W 123°05'0 0.0
2017-Nov-25 16:58N 49°17' W 123°05'0 0.0
2017-Nov-25 16:28N 49°17' W 123°05'0 0.0
2017-Nov-25 15:58N 49°17' W 123°05'0 0.0
2017-Nov-25 15:28N 49°17' W 123°05'0 0.0
2017-Nov-25 14:58N 49°17' W 123°05'0 0.0
2017-Nov-25 14:28N 49°17' W 123°05'0 0.0
2017-Nov-25 13:58N 49°17' W 123°05'0 0.0
2017-Nov-25 13:28N 49°17' W 123°05'0 0.0
2017-Nov-25 12:58N 49°17' W 123°05'0 0.0
2017-Nov-25 12:28N 49°17' W 123°05'0 0.0
2017-Nov-25 11:58N 49°17' W 123°05'0 0.0
2017-Nov-25 11:28N 49°17' W 123°05'0 0.0
2017-Nov-25 10:58N 49°17' W 123°05'0 0.0
2017-Nov-25 10:28N 49°17' W 123°05'0 0.0
2017-Nov-25 09:58N 49°17' W 123°05'0 0.0
2017-Nov-25 09:28N 49°17' W 123°05'0 0.0
2017-Nov-25 08:58N 49°17' W 123°05'0 0.0
2017-Nov-25 08:28N 49°17' W 123°05'0 0.0
2017-Nov-25 07:58N 49°17' W 123°05'0 0.0
2017-Nov-25 07:28N 49°17' W 123°05'0 0.0
2017-Nov-25 06:58N 49°17' W 123°05'0 0.0
2017-Nov-25 06:28N 49°17' W 123°05'0 0.0
2017-Nov-25 05:58N 49°17' W 123°05'0 0.0
2017-Nov-25 05:28N 49°17' W 123°05'0 0.0
2017-Nov-25 04:58N 49°17' W 123°05'0 0.0
2017-Nov-25 04:28N 49°17' W 123°05'0 0.0
2017-Nov-25 03:58N 49°17' W 123°05'0 0.0
2017-Nov-25 03:28N 49°17' W 123°05'0 0.0
2017-Nov-25 02:58N 49°17' W 123°05'0 0.0
2017-Nov-25 02:28N 49°17' W 123°05'0 0.0
2017-Nov-25 01:58N 49°17' W 123°05'0 0.0
2017-Nov-25 01:28N 49°17' W 123°05'0 0.0
2017-Nov-25 00:58N 49°17' W 123°05'0 0.0
2017-Nov-25 00:28N 49°17' W 123°05'0 0.0
2017-Nov-24 23:58N 49°17' W 123°05'0 0.0
2017-Nov-24 23:28N 49°17' W 123°05'0 0.0
2017-Nov-24 22:58N 49°17' W 123°05'0 0.0
2017-Nov-24 22:28N 49°17' W 123°05'0 0.0
2017-Nov-24 21:58N 49°17' W 123°05'0 0.0
2017-Nov-24 21:28N 49°17' W 123°05'0 0.0
2017-Nov-24 20:58N 49°17' W 123°05'0 0.0
2017-Nov-24 20:28N 49°17' W 123°05'0 0.0
2017-Nov-24 19:58N 49°17' W 123°05'0 0.0
2017-Nov-24 19:28N 49°17' W 123°05'0 0.0
2017-Nov-24 18:58N 49°17' W 123°05'0 0.0
2017-Nov-24 18:28N 49°17' W 123°05'0 0.0
2017-Nov-24 17:55N 49°17' W 123°05'0 0.0
2017-Nov-24 17:28N 49°17' W 123°05'0 0.0
2017-Nov-24 16:58N 49°17' W 123°05'0 0.0
2017-Nov-24 16:28N 49°17' W 123°05'0 0.0
2017-Nov-24 15:58N 49°17' W 123°05'0 0.0
2017-Nov-24 15:28N 49°17' W 123°05'0 0.0
2017-Nov-24 14:58N 49°17' W 123°05'0 0.0
2017-Nov-24 14:28N 49°17' W 123°05'0 0.0
2017-Nov-24 13:58N 49°17' W 123°05'0 0.0
2017-Nov-24 13:28N 49°17' W 123°05'0 0.0
2017-Nov-24 12:58N 49°17' W 123°05'0 0.0
2017-Nov-24 12:28N 49°17' W 123°05'0 0.0
2017-Nov-24 11:58N 49°17' W 123°05'1 1.6
2017-Nov-24 11:30N 49°18' W 123°06'4 8.2
2017-Nov-24 11:00N 49°19' W 123°12'1 2.4
2017-Nov-24 10:29N 49°18' W 123°13'0 0.0
2017-Nov-24 09:59N 49°18' W 123°13'0 0.0
2017-Nov-24 09:29N 49°18' W 123°13'0 0.0
2017-Nov-24 08:59N 49°18' W 123°13'0 0.1
2017-Nov-24 08:29N 49°18' W 123°13'0 0.0
2017-Nov-24 07:59N 49°18' W 123°13'0 0.0
2017-Nov-24 07:29N 49°18' W 123°13'0 0.0
2017-Nov-24 06:59N 49°18' W 123°13'0 0.0
2017-Nov-24 06:29N 49°18' W 123°13'0 0.1
2017-Nov-24 05:56N 49°18' W 123°13'0 0.1
2017-Nov-24 05:29N 49°18' W 123°13'0 0.1
2017-Nov-24 04:47N 49°18' W 123°13'0 0.1
2017-Nov-24 04:29N 49°18' W 123°13'0 0.0
2017-Nov-24 03:56N 49°18' W 123°13'0 0.0
2017-Nov-24 03:29N 49°18' W 123°13'0 0.0
2017-Nov-24 02:59N 49°18' W 123°13'0 0.0
2017-Nov-24 02:29N 49°18' W 123°13'0 0.0
2017-Nov-24 01:59N 49°18' W 123°13'0 0.0
2017-Nov-24 01:29N 49°18' W 123°13'0 0.0
2017-Nov-24 00:59N 49°18' W 123°13'0 0.2
2017-Nov-24 00:29N 49°18' W 123°13'0 0.2
2017-Nov-23 23:59N 49°18' W 123°13'0 0.0
2017-Nov-23 23:29N 49°18' W 123°13'0 0.0
2017-Nov-23 22:53N 49°18' W 123°13'0 0.0
2017-Nov-23 22:29N 49°18' W 123°13'0 0.0
2017-Nov-23 21:59N 49°18' W 123°13'0 0.0
2017-Nov-23 21:29N 49°18' W 123°13'0 0.0
2017-Nov-23 20:59N 49°18' W 123°13'0 0.0
2017-Nov-23 20:29N 49°18' W 123°13'0 0.0
2017-Nov-23 19:56N 49°18' W 123°13'0 0.0
2017-Nov-23 19:29N 49°18' W 123°13'0 0.0
2017-Nov-23 18:59N 49°18' W 123°13'0 0.0
2017-Nov-23 18:29N 49°18' W 123°13'0 0.0
2017-Nov-23 17:59N 49°18' W 123°13'0 0.1
2017-Nov-23 17:29N 49°18' W 123°13'0 0.2
2017-Nov-23 16:59N 49°18' W 123°13'0 0.2
2017-Nov-23 16:26N 49°18' W 123°13'0 0.1
2017-Nov-23 15:59N 49°18' W 123°13'0 0.0
2017-Nov-23 15:29N 49°18' W 123°13'0 0.1
2017-Nov-23 14:59N 49°18' W 123°13'0 0.0
2017-Nov-23 14:29N 49°18' W 123°13'0 0.0
2017-Nov-23 13:59N 49°18' W 123°13'0 0.0
2017-Nov-23 13:20N 49°18' W 123°13'0 0.0
2017-Nov-23 12:59N 49°18' W 123°13'0 0.1
2017-Nov-23 12:29N 49°18' W 123°13'0 0.0
2017-Nov-23 11:56N 49°18' W 123°13'0 0.0
2017-Nov-23 11:29N 49°18' W 123°13'0 0.0
2017-Nov-23 10:59N 49°18' W 123°13'0 0.0
2017-Nov-23 10:29N 49°18' W 123°13'0 0.0
2017-Nov-23 09:53N 49°18' W 123°13'0 0.0
2017-Nov-23 09:23N 49°18' W 123°13'0 0.0
2017-Nov-23 08:59N 49°18' W 123°13'0 0.0
2017-Nov-23 08:29N 49°18' W 123°13'0 0.1
2017-Nov-23 07:59N 49°18' W 123°13'0 0.1
2017-Nov-23 07:23N 49°18' W 123°13'0 0.0
2017-Nov-23 06:53N 49°18' W 123°13'0 0.0
2017-Nov-23 06:29N 49°18' W 123°13'0 0.1
2017-Nov-23 05:56N 49°18' W 123°13'0 0.2
2017-Nov-23 05:29N 49°18' W 123°13'0 0.1
2017-Nov-23 04:59N 49°18' W 123°13'0 0.1
2017-Nov-23 04:29N 49°18' W 123°13'0 0.0
2017-Nov-23 03:59N 49°18' W 123°13'0 0.1
2017-Nov-23 03:29N 49°18' W 123°13'0 0.0
2017-Nov-23 02:56N 49°18' W 123°13'0 0.0
2017-Nov-23 02:29N 49°18' W 123°13'0 0.1
2017-Nov-23 02:00N 49°18' W 123°13'0 0.0
2017-Nov-23 01:30N 49°18' W 123°13'0 0.0
2017-Nov-23 01:00N 49°18' W 123°13'0 0.1
2017-Nov-23 00:30N 49°18' W 123°13'0 0.2
2017-Nov-23 00:00N 49°18' W 123°13'0 0.0
2017-Nov-22 23:30N 49°18' W 123°13'0 0.1
2017-Nov-22 23:00N 49°18' W 123°13'0 0.0
2017-Nov-22 22:30N 49°18' W 123°13'0 0.0
2017-Nov-22 21:54N 49°18' W 123°13'0 0.0
2017-Nov-22 21:30N 49°18' W 123°13'0 0.0
2017-Nov-22 21:00N 49°18' W 123°13'0 0.0
2017-Nov-22 20:30N 49°18' W 123°13'0 0.0
2017-Nov-22 20:00N 49°18' W 123°13'0 0.0
2017-Nov-22 19:27N 49°18' W 123°13'  
2017-Nov-20 00:27N 49°18' W 123°13'0 0.1
2017-Nov-20 00:00N 49°18' W 123°13'0 0.0
2017-Nov-19 23:30N 49°18' W 123°13'0 0.0
2017-Nov-19 22:54N 49°18' W 123°13'0 0.0
2017-Nov-19 22:30N 49°18' W 123°13'0 0.1
2017-Nov-19 21:57N 49°18' W 123°13'0 0.0
2017-Nov-19 21:24N 49°18' W 123°13'0 0.0
2017-Nov-19 20:57N 49°18' W 123°13'0 0.0
2017-Nov-19 20:30N 49°18' W 123°13'0 0.0
2017-Nov-19 19:51N 49°18' W 123°13'0 0.0
2017-Nov-19 19:30N 49°18' W 123°13'0 0.0
2017-Nov-19 19:00N 49°18' W 123°13'0 0.0
2017-Nov-19 18:30N 49°18' W 123°13'0 0.0
2017-Nov-19 18:00N 49°18' W 123°13'0 0.0
2017-Nov-19 17:27N 49°18' W 123°13'0 0.0
2017-Nov-19 17:00N 49°18' W 123°13'0 0.0
2017-Nov-19 16:30N 49°18' W 123°13'0 0.0
2017-Nov-19 16:00N 49°18' W 123°13'  
Track history (hours):
 
Tides and Currents Weather Stations Pressure Air Temp Water Temp Dewpoint Dewpoint Depression Visibility Wind Speed Wind Dir Waves Ship Positions

Sea Hope

Last reported at 2017-Nov-29 15:32 UTC. Time now 2017-Dec-12 02:48 UTC.
Position N 48°59' W 126°27'.
Warning: this ship's position is 12 days out of date.

Length 181 m; draft 10.4 m.

Type: Cargo ship. MMSI: 577297000.

Date/timePositionNaut miles runAvg speedWind from/ knotsBaromVisibWave heightAir tempDewpointWater temp
2017-Nov-29 15:32N 48°59' W 126°27'1 8.0
2017-Nov-29 15:27N 48°59' W 126°26'10 7.5
2017-Nov-29 14:10N 48°55' W 126°13'1 7.4
2017-Nov-29 14:00N 48°55' W 126°11'4 7.5
2017-Nov-29 13:30N 48°53' W 126°06'3 7.2
2017-Nov-29 13:01N 48°52' W 126°01'4 7.5
2017-Nov-29 12:30N 48°51' W 125°55'4 7.3
2017-Nov-29 12:01N 48°49' W 125°50'4 7.1
2017-Nov-29 11:31N 48°48' W 125°45'3 7.0
2017-Nov-29 11:01N 48°46' W 125°40'4 7.2
2017-Nov-29 10:31N 48°45' W 125°35'4 7.4
2017-Nov-29 10:01N 48°43' W 125°30'4 7.6
2017-Nov-29 09:31N 48°42' W 125°25'4 7.3
2017-Nov-29 09:01N 48°41' W 125°20'4 8.0
2017-Nov-29 08:31N 48°39' W 125°14'4 7.8
2017-Nov-29 08:00N 48°37' W 125°09'4 7.7
2017-Nov-29 07:30N 48°36' W 125°03'4 7.1
2017-Nov-29 07:00N 48°35' W 124°58'3 6.6
2017-Nov-29 06:30N 48°34' W 124°54'3 6.7
2017-Nov-29 06:00N 48°32' W 124°49'3 6.1
2017-Nov-29 05:30N 48°31' W 124°45'3 5.7
2017-Nov-29 05:00N 48°30' W 124°41'3 5.7
2017-Nov-29 04:31N 48°29' W 124°37'3 6.7
2017-Nov-29 04:00N 48°27' W 124°32'4 7.7
2017-Nov-29 03:30N 48°26' W 124°27'4 9.0
2017-Nov-29 03:01N 48°24' W 124°21'5 9.8
2017-Nov-29 02:30N 48°22' W 124°14'510.7
2017-Nov-29 02:00N 48°20' W 124°06'510.9
2017-Nov-29 01:31N 48°18' W 123°59'510.9
2017-Nov-29 01:00N 48°17' W 123°51'611.1
2017-Nov-29 00:30N 48°16' W 123°43'612.8
2017-Nov-29 00:01N 48°15' W 123°33'611.5
2017-Nov-28 23:31N 48°19' W 123°27'4 7.9
2017-Nov-28 23:01N 48°23' W 123°24'510.5
2017-Nov-28 22:30N 48°23' W 123°16'612.2
2017-Nov-28 22:00N 48°29' W 123°13'613.0
2017-Nov-28 21:30N 48°36' W 123°14'612.4
2017-Nov-28 21:00N 48°42' W 123°15'612.0
2017-Nov-28 20:29N 48°45' W 123°07'611.4
2017-Nov-28 20:00N 48°48' W 123°01'713.1
2017-Nov-28 19:30N 48°53' W 123°07'612.9
2017-Nov-28 19:00N 48°58' W 123°15'712.5
2017-Nov-28 18:28N 49°02' W 123°22'511.2
2017-Nov-28 18:00N 49°08' W 123°23'611.9
2017-Nov-28 17:30N 49°13' W 123°21'611.3
2017-Nov-28 17:00N 49°18' W 123°17'611.2
2017-Nov-28 16:30N 49°19' W 123°08'3 5.6
2017-Nov-28 16:00N 49°17' W 123°05'0 0.1
2017-Nov-28 14:58N 49°17' W 123°05'0 0.0
2017-Nov-28 14:25N 49°17' W 123°05'0 0.0
2017-Nov-28 13:58N 49°17' W 123°05'0 0.0
2017-Nov-28 13:28N 49°17' W 123°05'0 0.0
2017-Nov-28 12:58N 49°17' W 123°05'0 0.0
2017-Nov-28 12:28N 49°17' W 123°05'0 0.0
2017-Nov-28 11:58N 49°17' W 123°05'0 0.0
2017-Nov-28 11:28N 49°17' W 123°05'0 0.0
2017-Nov-28 10:58N 49°17' W 123°05'0 0.0
2017-Nov-28 10:28N 49°17' W 123°05'0 0.0
2017-Nov-28 09:58N 49°17' W 123°05'0 0.0
2017-Nov-28 09:28N 49°17' W 123°05'0 0.0
2017-Nov-28 08:58N 49°17' W 123°05'0 0.0
2017-Nov-28 08:28N 49°17' W 123°05'0 0.1
2017-Nov-28 07:58N 49°17' W 123°05'0 0.1
2017-Nov-28 07:28N 49°17' W 123°05'0 0.0
2017-Nov-28 06:58N 49°17' W 123°05'0 0.0
2017-Nov-28 06:28N 49°17' W 123°05'0 0.0
2017-Nov-28 05:58N 49°17' W 123°05'0 0.0
2017-Nov-28 05:28N 49°17' W 123°05'0 0.0
2017-Nov-28 04:28N 49°17' W 123°05'0 0.0
2017-Nov-28 03:58N 49°17' W 123°05'0 0.0
2017-Nov-28 03:28N 49°17' W 123°05'0 0.0
2017-Nov-28 02:58N 49°17' W 123°05'0 0.0
2017-Nov-28 02:28N 49°17' W 123°05'0 0.0
2017-Nov-28 01:58N 49°17' W 123°05'0 0.0
2017-Nov-28 01:28N 49°17' W 123°05'0 0.0
2017-Nov-28 00:58N 49°17' W 123°05'0 0.0
2017-Nov-28 00:28N 49°17' W 123°05'0 0.0
2017-Nov-27 23:58N 49°17' W 123°05'0 0.0
2017-Nov-27 23:28N 49°17' W 123°05'0 0.0
2017-Nov-27 22:58N 49°17' W 123°05'0 0.0
2017-Nov-27 22:28N 49°17' W 123°05'0 0.0
2017-Nov-27 21:58N 49°17' W 123°05'0 0.0
2017-Nov-27 21:28N 49°17' W 123°05'0 0.0
2017-Nov-27 20:58N 49°17' W 123°05'0 0.0
2017-Nov-27 20:28N 49°17' W 123°05'0 0.0
2017-Nov-27 19:58N 49°17' W 123°05'0 0.0
2017-Nov-27 19:28N 49°17' W 123°05'0 0.0
2017-Nov-27 18:58N 49°17' W 123°05'0 0.0
2017-Nov-27 18:28N 49°17' W 123°05'0 0.0
2017-Nov-27 17:58N 49°17' W 123°05'0 0.0
2017-Nov-27 17:28N 49°17' W 123°05'0 0.0
2017-Nov-27 16:58N 49°17' W 123°05'0 0.0
2017-Nov-27 16:28N 49°17' W 123°05'0 0.0
2017-Nov-27 15:58N 49°17' W 123°05'0 0.0
2017-Nov-27 15:28N 49°17' W 123°05'0 0.0
2017-Nov-27 14:58N 49°17' W 123°05'0 0.0
2017-Nov-27 14:28N 49°17' W 123°05'0 0.0
2017-Nov-27 13:58N 49°17' W 123°05'0 0.0
2017-Nov-27 13:28N 49°17' W 123°05'0 0.0
2017-Nov-27 12:58N 49°17' W 123°05'0 0.0
2017-Nov-27 12:28N 49°17' W 123°05'0 0.0
2017-Nov-27 11:58N 49°17' W 123°05'0 0.0
2017-Nov-27 11:28N 49°17' W 123°05'0 0.0
2017-Nov-27 10:58N 49°17' W 123°05'0 0.0
2017-Nov-27 10:28N 49°17' W 123°05'0 0.0
2017-Nov-27 09:58N 49°17' W 123°05'0 0.0
2017-Nov-27 09:28N 49°17' W 123°05'0 0.0
2017-Nov-27 08:58N 49°17' W 123°05'0 0.0
2017-Nov-27 08:28N 49°17' W 123°05'0 0.0
2017-Nov-27 07:58N 49°17' W 123°05'0 0.0
2017-Nov-27 07:28N 49°17' W 123°05'0 0.0
2017-Nov-27 06:58N 49°17' W 123°05'0 0.0
2017-Nov-27 06:28N 49°17' W 123°05'0 0.0
2017-Nov-27 05:58N 49°17' W 123°05'0 0.0
2017-Nov-27 05:28N 49°17' W 123°05'0 0.0
2017-Nov-27 04:58N 49°17' W 123°05'0 0.0
2017-Nov-27 04:28N 49°17' W 123°05'0 0.0
2017-Nov-27 03:58N 49°17' W 123°05'0 0.0
2017-Nov-27 03:28N 49°17' W 123°05'0 0.0
2017-Nov-27 02:58N 49°17' W 123°05'0 0.0
2017-Nov-27 02:28N 49°17' W 123°05'0 0.0
2017-Nov-27 01:58N 49°17' W 123°05'0 0.0
2017-Nov-27 01:28N 49°17' W 123°05'0 0.0
2017-Nov-27 00:58N 49°17' W 123°05'0 0.0
2017-Nov-27 00:28N 49°17' W 123°05'0 0.0
2017-Nov-26 23:58N 49°17' W 123°05'0 0.0
2017-Nov-26 23:28N 49°17' W 123°05'0 0.0
2017-Nov-26 22:58N 49°17' W 123°05'0 0.0
2017-Nov-26 22:28N 49°17' W 123°05'0 0.0
2017-Nov-26 21:58N 49°17' W 123°05'0 0.0
2017-Nov-26 21:28N 49°17' W 123°05'0 0.0
2017-Nov-26 20:58N 49°17' W 123°05'0 0.0
2017-Nov-26 20:28N 49°17' W 123°05'0 0.0
2017-Nov-26 19:58N 49°17' W 123°05'0 0.0
2017-Nov-26 19:28N 49°17' W 123°05'0 0.0
2017-Nov-26 18:58N 49°17' W 123°05'0 0.0
2017-Nov-26 18:28N 49°17' W 123°05'0 0.0
2017-Nov-26 17:58N 49°17' W 123°05'0 0.0
2017-Nov-26 17:28N 49°17' W 123°05'0 0.0
2017-Nov-26 16:58N 49°17' W 123°05'0 0.0
2017-Nov-26 16:28N 49°17' W 123°05'0 0.0
2017-Nov-26 15:58N 49°17' W 123°05'0 0.0
2017-Nov-26 15:28N 49°17' W 123°05'0 0.0
2017-Nov-26 14:58N 49°17' W 123°05'0 0.0
2017-Nov-26 14:28N 49°17' W 123°05'0 0.0
2017-Nov-26 13:58N 49°17' W 123°05'0 0.0
2017-Nov-26 13:28N 49°17' W 123°05'0 0.0
2017-Nov-26 12:58N 49°17' W 123°05'0 0.0
2017-Nov-26 12:28N 49°17' W 123°05'0 0.0
2017-Nov-26 11:58N 49°17' W 123°05'0 0.0
2017-Nov-26 11:28N 49°17' W 123°05'0 0.0
2017-Nov-26 10:58N 49°17' W 123°05'0 0.0
2017-Nov-26 10:28N 49°17' W 123°05'0 0.0
2017-Nov-26 09:58N 49°17' W 123°05'0 0.0
2017-Nov-26 09:28N 49°17' W 123°05'0 0.0
2017-Nov-26 08:58N 49°17' W 123°05'0 0.1
2017-Nov-26 08:28N 49°17' W 123°05'0 0.1
2017-Nov-26 07:58N 49°17' W 123°05'0 0.0
2017-Nov-26 07:28N 49°17' W 123°05'0 0.0
2017-Nov-26 06:58N 49°17' W 123°05'0 0.0
2017-Nov-26 06:28N 49°17' W 123°05'0 0.0
2017-Nov-26 05:58N 49°17' W 123°05'0 0.0
2017-Nov-26 05:28N 49°17' W 123°05'0 0.0
2017-Nov-26 04:58N 49°17' W 123°05'0 0.0
2017-Nov-26 04:28N 49°17' W 123°05'0 0.0
2017-Nov-26 03:58N 49°17' W 123°05'0 0.0
2017-Nov-26 03:28N 49°17' W 123°05'0 0.0
2017-Nov-26 02:58N 49°17' W 123°05'0 0.0
2017-Nov-26 02:28N 49°17' W 123°05'0 0.0
2017-Nov-26 01:58N 49°17' W 123°05'0 0.0
2017-Nov-26 01:28N 49°17' W 123°05'0 0.0
2017-Nov-26 00:58N 49°17' W 123°05'0 0.0
2017-Nov-26 00:28N 49°17' W 123°05'0 0.0
2017-Nov-25 23:58N 49°17' W 123°05'0 0.0
2017-Nov-25 23:28N 49°17' W 123°05'0 0.0
2017-Nov-25 22:58N 49°17' W 123°05'0 0.0
2017-Nov-25 22:28N 49°17' W 123°05'0 0.0
2017-Nov-25 21:58N 49°17' W 123°05'0 0.0
2017-Nov-25 21:28N 49°17' W 123°05'0 0.0
2017-Nov-25 20:58N 49°17' W 123°05'0 0.0
2017-Nov-25 20:28N 49°17' W 123°05'0 0.0
2017-Nov-25 19:58N 49°17' W 123°05'0 0.0
2017-Nov-25 19:28N 49°17' W 123°05'0 0.0
2017-Nov-25 18:58N 49°17' W 123°05'0 0.0
2017-Nov-25 18:28N 49°17' W 123°05'0 0.0
2017-Nov-25 17:58N 49°17' W 123°05'0 0.0
2017-Nov-25 17:28N 49°17' W 123°05'0 0.0
2017-Nov-25 16:58N 49°17' W 123°05'0 0.0
2017-Nov-25 16:28N 49°17' W 123°05'0 0.0
2017-Nov-25 15:58N 49°17' W 123°05'0 0.0
2017-Nov-25 15:28N 49°17' W 123°05'0 0.0
2017-Nov-25 14:58N 49°17' W 123°05'0 0.0
2017-Nov-25 14:28N 49°17' W 123°05'0 0.0
2017-Nov-25 13:58N 49°17' W 123°05'0 0.0
2017-Nov-25 13:28N 49°17' W 123°05'0 0.0
2017-Nov-25 12:58N 49°17' W 123°05'0 0.0
2017-Nov-25 12:28N 49°17' W 123°05'0 0.0
2017-Nov-25 11:58N 49°17' W 123°05'0 0.0
2017-Nov-25 11:28N 49°17' W 123°05'0 0.0
2017-Nov-25 10:58N 49°17' W 123°05'0 0.0
2017-Nov-25 10:28N 49°17' W 123°05'0 0.0
2017-Nov-25 09:58N 49°17' W 123°05'0 0.0
2017-Nov-25 09:28N 49°17' W 123°05'0 0.0
2017-Nov-25 08:58N 49°17' W 123°05'0 0.0
2017-Nov-25 08:28N 49°17' W 123°05'0 0.0
2017-Nov-25 07:58N 49°17' W 123°05'0 0.0
2017-Nov-25 07:28N 49°17' W 123°05'0 0.0
2017-Nov-25 06:58N 49°17' W 123°05'0 0.0
2017-Nov-25 06:28N 49°17' W 123°05'0 0.0
2017-Nov-25 05:58N 49°17' W 123°05'0 0.0
2017-Nov-25 05:28N 49°17' W 123°05'0 0.0
2017-Nov-25 04:58N 49°17' W 123°05'0 0.0
2017-Nov-25 04:28N 49°17' W 123°05'0 0.0
2017-Nov-25 03:58N 49°17' W 123°05'0 0.0
2017-Nov-25 03:28N 49°17' W 123°05'0 0.0
2017-Nov-25 02:58N 49°17' W 123°05'0 0.0
2017-Nov-25 02:28N 49°17' W 123°05'0 0.0
2017-Nov-25 01:58N 49°17' W 123°05'0 0.0
2017-Nov-25 01:28N 49°17' W 123°05'0 0.0
2017-Nov-25 00:58N 49°17' W 123°05'0 0.0
2017-Nov-25 00:28N 49°17' W 123°05'0 0.0
2017-Nov-24 23:58N 49°17' W 123°05'0 0.0
2017-Nov-24 23:28N 49°17' W 123°05'0 0.0
2017-Nov-24 22:58N 49°17' W 123°05'0 0.0
2017-Nov-24 22:28N 49°17' W 123°05'0 0.0
2017-Nov-24 21:58N 49°17' W 123°05'0 0.0
2017-Nov-24 21:28N 49°17' W 123°05'0 0.0
2017-Nov-24 20:58N 49°17' W 123°05'0 0.0
2017-Nov-24 20:28N 49°17' W 123°05'0 0.0
2017-Nov-24 19:58N 49°17' W 123°05'0 0.0
2017-Nov-24 19:28N 49°17' W 123°05'0 0.0
2017-Nov-24 18:58N 49°17' W 123°05'0 0.0
2017-Nov-24 18:28N 49°17' W 123°05'0 0.0
2017-Nov-24 17:55N 49°17' W 123°05'0 0.0
2017-Nov-24 17:28N 49°17' W 123°05'0 0.0
2017-Nov-24 16:58N 49°17' W 123°05'0 0.0
2017-Nov-24 16:28N 49°17' W 123°05'0 0.0
2017-Nov-24 15:58N 49°17' W 123°05'0 0.0
2017-Nov-24 15:28N 49°17' W 123°05'0 0.0
2017-Nov-24 14:58N 49°17' W 123°05'0 0.0
2017-Nov-24 14:28N 49°17' W 123°05'0 0.0
2017-Nov-24 13:58N 49°17' W 123°05'0 0.0
2017-Nov-24 13:28N 49°17' W 123°05'0 0.0
2017-Nov-24 12:58N 49°17' W 123°05'0 0.0
2017-Nov-24 12:28N 49°17' W 123°05'0 0.0
2017-Nov-24 11:58N 49°17' W 123°05'1 1.6
2017-Nov-24 11:30N 49°18' W 123°06'4 8.2
2017-Nov-24 11:00N 49°19' W 123°12'1 2.4
2017-Nov-24 10:29N 49°18' W 123°13'0 0.0
2017-Nov-24 09:59N 49°18' W 123°13'0 0.0
2017-Nov-24 09:29N 49°18' W 123°13'0 0.0
2017-Nov-24 08:59N 49°18' W 123°13'0 0.1
2017-Nov-24 08:29N 49°18' W 123°13'0 0.0
2017-Nov-24 07:59N 49°18' W 123°13'0 0.0
2017-Nov-24 07:29N 49°18' W 123°13'0 0.0
2017-Nov-24 06:59N 49°18' W 123°13'0 0.0
2017-Nov-24 06:29N 49°18' W 123°13'0 0.1
2017-Nov-24 05:56N 49°18' W 123°13'0 0.1
2017-Nov-24 05:29N 49°18' W 123°13'0 0.1
2017-Nov-24 04:47N 49°18' W 123°13'0 0.1
2017-Nov-24 04:29N 49°18' W 123°13'0 0.0
2017-Nov-24 03:56N 49°18' W 123°13'0 0.0
2017-Nov-24 03:29N 49°18' W 123°13'0 0.0
2017-Nov-24 02:59N 49°18' W 123°13'0 0.0
2017-Nov-24 02:29N 49°18' W 123°13'0 0.0
2017-Nov-24 01:59N 49°18' W 123°13'0 0.0
2017-Nov-24 01:29N 49°18' W 123°13'0 0.0
2017-Nov-24 00:59N 49°18' W 123°13'0 0.2
2017-Nov-24 00:29N 49°18' W 123°13'0 0.2
2017-Nov-23 23:59N 49°18' W 123°13'0 0.0
2017-Nov-23 23:29N 49°18' W 123°13'0 0.0
2017-Nov-23 22:53N 49°18' W 123°13'0 0.0
2017-Nov-23 22:29N 49°18' W 123°13'0 0.0
2017-Nov-23 21:59N 49°18' W 123°13'0 0.0
2017-Nov-23 21:29N 49°18' W 123°13'0 0.0
2017-Nov-23 20:59N 49°18' W 123°13'0 0.0
2017-Nov-23 20:29N 49°18' W 123°13'0 0.0
2017-Nov-23 19:56N 49°18' W 123°13'0 0.0
2017-Nov-23 19:29N 49°18' W 123°13'0 0.0
2017-Nov-23 18:59N 49°18' W 123°13'0 0.0
2017-Nov-23 18:29N 49°18' W 123°13'0 0.0
2017-Nov-23 17:59N 49°18' W 123°13'0 0.1
2017-Nov-23 17:29N 49°18' W 123°13'0 0.2
2017-Nov-23 16:59N 49°18' W 123°13'0 0.2
2017-Nov-23 16:26N 49°18' W 123°13'0 0.1
2017-Nov-23 15:59N 49°18' W 123°13'0 0.0
2017-Nov-23 15:29N 49°18' W 123°13'0 0.1
2017-Nov-23 14:59N 49°18' W 123°13'0 0.0
2017-Nov-23 14:29N 49°18' W 123°13'0 0.0
2017-Nov-23 13:59N 49°18' W 123°13'0 0.0
2017-Nov-23 13:20N 49°18' W 123°13'0 0.0
2017-Nov-23 12:59N 49°18' W 123°13'0 0.1
2017-Nov-23 12:29N 49°18' W 123°13'0 0.0
2017-Nov-23 11:56N 49°18' W 123°13'0 0.0
2017-Nov-23 11:29N 49°18' W 123°13'0 0.0
2017-Nov-23 10:59N 49°18' W 123°13'0 0.0
2017-Nov-23 10:29N 49°18' W 123°13'0 0.0
2017-Nov-23 09:53N 49°18' W 123°13'0 0.0
2017-Nov-23 09:23N 49°18' W 123°13'0 0.0
2017-Nov-23 08:59N 49°18' W 123°13'0 0.0
2017-Nov-23 08:29N 49°18' W 123°13'0 0.1
2017-Nov-23 07:59N 49°18' W 123°13'0 0.1
2017-Nov-23 07:23N 49°18' W 123°13'0 0.0
2017-Nov-23 06:53N 49°18' W 123°13'0 0.0
2017-Nov-23 06:29N 49°18' W 123°13'0 0.1
2017-Nov-23 05:56N 49°18' W 123°13'0 0.2
2017-Nov-23 05:29N 49°18' W 123°13'0 0.1
2017-Nov-23 04:59N 49°18' W 123°13'0 0.1
2017-Nov-23 04:29N 49°18' W 123°13'0 0.0
2017-Nov-23 03:59N 49°18' W 123°13'0 0.1
2017-Nov-23 03:29N 49°18' W 123°13'0 0.0
2017-Nov-23 02:56N 49°18' W 123°13'0 0.0
2017-Nov-23 02:29N 49°18' W 123°13'0 0.1
2017-Nov-23 02:00N 49°18' W 123°13'0 0.0
2017-Nov-23 01:30N 49°18' W 123°13'0 0.0
2017-Nov-23 01:00N 49°18' W 123°13'0 0.1
2017-Nov-23 00:30N 49°18' W 123°13'0 0.2
2017-Nov-23 00:00N 49°18' W 123°13'0 0.0
2017-Nov-22 23:30N 49°18' W 123°13'0 0.1
2017-Nov-22 23:00N 49°18' W 123°13'0 0.0
2017-Nov-22 22:30N 49°18' W 123°13'0 0.0
2017-Nov-22 21:54N 49°18' W 123°13'0 0.0
2017-Nov-22 21:30N 49°18' W 123°13'0 0.0
2017-Nov-22 21:00N 49°18' W 123°13'0 0.0
2017-Nov-22 20:30N 49°18' W 123°13'0 0.0
2017-Nov-22 20:00N 49°18' W 123°13'0 0.0
2017-Nov-22 19:27N 49°18' W 123°13'  
2017-Nov-20 00:27N 49°18' W 123°13'0 0.1
2017-Nov-20 00:00N 49°18' W 123°13'0 0.0
2017-Nov-19 23:30N 49°18' W 123°13'0 0.0
2017-Nov-19 22:54N 49°18' W 123°13'0 0.0
2017-Nov-19 22:30N 49°18' W 123°13'0 0.1
2017-Nov-19 21:57N 49°18' W 123°13'0 0.0
2017-Nov-19 21:24N 49°18' W 123°13'0 0.0
2017-Nov-19 20:57N 49°18' W 123°13'0 0.0
2017-Nov-19 20:30N 49°18' W 123°13'0 0.0
2017-Nov-19 19:51N 49°18' W 123°13'0 0.0
2017-Nov-19 19:30N 49°18' W 123°13'0 0.0
2017-Nov-19 19:00N 49°18' W 123°13'0 0.0
2017-Nov-19 18:30N 49°18' W 123°13'0 0.0
2017-Nov-19 18:00N 49°18' W 123°13'0 0.0
2017-Nov-19 17:27N 49°18' W 123°13'0 0.0
2017-Nov-19 17:00N 49°18' W 123°13'0 0.0
2017-Nov-19 16:30N 49°18' W 123°13'0 0.0
2017-Nov-19 16:00N 49°18' W 123°13'  

Dump ship's entire track history